Terminal Aerodrome Forecast
Issued by NWS

Home | Current Version | Previous Version | Graphics & Text | Print | Product List | Glossary On
Versions: 1 2 3 4 5 6 7 8 9 10 11 12 13 14
000
FTUS42 KMHX 250809 AAA
TAFPGV
TAF AMD
KPGV 250809Z 2508/2606 VRB03KT P6SM FEW250
      TEMPO 2508/2509 1SM BR
     FM250900 00000KT 2SM BR FEW250
     FM251230 VRB02KT P6SM FEW250
     FM251500 16004KT P6SM SCT050
      AMD LTD TO CLD VIS AND WIND=

USA.gov is the U.S. government's official web portal to all federal, state and local government web resources and services.